createdAt,value
2023-11-27T00:00:37.675Z,39.60
2023-11-27T00:03:07.998Z,33.20
2023-11-27T00:05:35.103Z,34.00
2023-11-27T00:08:01.877Z,28.00
2023-11-27T00:10:28.735Z,30.00
2023-11-27T00:13:00.909Z,30.60
2023-11-27T00:15:28.899Z,43.60
2023-11-27T00:17:56.076Z,32.40
2023-11-27T00:20:23.495Z,34.60
2023-11-27T00:22:50.303Z,30.80
2023-11-27T00:25:17.364Z,39.40
2023-11-27T00:27:44.563Z,28.00
2023-11-27T00:30:12.004Z,30.20
2023-11-27T00:32:38.848Z,31.00
2023-11-27T00:35:06.381Z,34.60
2023-11-27T00:37:33.264Z,30.20
2023-11-27T00:40:00.310Z,32.20
2023-11-27T00:42:27.348Z,30.80
2023-11-27T00:44:54.205Z,35.40
2023-11-27T00:47:20.941Z,31.40
2023-11-27T00:49:47.680Z,27.40
2023-11-27T00:52:14.538Z,30.00
2023-11-27T00:54:41.318Z,31.00
2023-11-27T00:57:08.195Z,41.40
2023-11-27T00:59:40.324Z,44.20
2023-11-27T01:02:08.095Z,38.00
2023-11-27T01:04:35.005Z,30.40
2023-11-27T01:07:02.002Z,43.00
2023-11-27T01:09:29.720Z,29.60
2023-11-27T01:11:56.499Z,32.40
2023-11-27T01:14:23.384Z,28.80
2023-11-27T01:16:50.220Z,33.00
2023-11-27T01:19:19.011Z,27.40
2023-11-27T01:21:45.923Z,31.00
2023-11-27T01:24:13.474Z,41.40
2023-11-27T01:26:40.287Z,34.20
2023-11-27T01:29:07.276Z,34.80
2023-11-27T01:31:34.020Z,33.60
2023-11-27T01:34:00.896Z,33.80
2023-11-27T01:36:28.627Z,31.60
2023-11-27T01:38:55.393Z,31.80
2023-11-27T01:41:22.621Z,45.00
2023-11-27T01:43:49.394Z,32.60
2023-11-27T01:46:45.363Z,31.40
2023-11-27T01:49:13.716Z,34.00
2023-11-27T01:51:41.559Z,34.40
2023-11-27T01:54:08.529Z,30.00
2023-11-27T01:56:36.336Z,32.80
2023-11-27T01:59:03.170Z,40.20
2023-11-27T02:01:31.855Z,31.60
2023-11-27T02:03:58.703Z,30.40
2023-11-27T02:06:25.578Z,25.80
2023-11-27T02:08:52.367Z,46.00
2023-11-27T02:11:20.703Z,33.40
2023-11-27T02:13:48.161Z,34.80
2023-11-27T02:16:17.485Z,41.40
2023-11-27T02:18:45.202Z,38.20
2023-11-27T02:21:13.380Z,41.20
2023-11-27T02:23:40.231Z,34.40
2023-11-27T02:26:07.939Z,33.40
2023-11-27T02:28:34.850Z,44.00
2023-11-27T02:31:01.758Z,40.80
2023-11-27T02:33:28.808Z,44.60
2023-11-27T02:35:55.634Z,37.40
2023-11-27T02:38:22.494Z,34.00
2023-11-27T02:40:49.359Z,37.20
2023-11-27T02:43:16.161Z,38.60
2023-11-27T02:45:43.384Z,35.60
2023-11-27T02:48:10.251Z,38.20
2023-11-27T02:50:36.932Z,52.00
2023-11-27T02:53:03.701Z,45.40
2023-11-27T02:55:30.594Z,38.80
2023-11-27T02:57:57.670Z,39.40
2023-11-27T03:00:24.654Z,37.80
2023-11-27T03:02:51.680Z,44.20
2023-11-27T03:05:18.642Z,37.40
2023-11-27T03:07:46.245Z,32.00
2023-11-27T03:10:14.787Z,33.20
2023-11-27T03:12:42.825Z,34.80
2023-11-27T03:15:09.997Z,36.00
2023-11-27T03:17:42.050Z,36.60
2023-11-27T03:20:12.230Z,36.80
2023-11-27T03:22:42.421Z,36.60
2023-11-27T03:25:09.753Z,43.60
2023-11-27T03:27:37.469Z,46.20
2023-11-27T03:30:06.042Z,41.00
2023-11-27T03:32:33.586Z,45.00
2023-11-27T03:35:00.555Z,34.20
2023-11-27T03:37:27.492Z,46.00
2023-11-27T03:39:54.367Z,39.00
2023-11-27T03:42:21.220Z,35.20
2023-11-27T03:44:48.317Z,33.00
2023-11-27T03:47:15.128Z,37.20
2023-11-27T03:49:41.944Z,44.00
2023-11-27T03:52:09.012Z,37.40
2023-11-27T03:54:36.049Z,43.40
2023-11-27T03:57:02.900Z,50.40
2023-11-27T03:59:29.831Z,42.00
2023-11-27T04:01:56.753Z,45.60
2023-11-27T04:04:23.785Z,37.60
2023-11-27T04:06:50.918Z,40.80
2023-11-27T04:09:22.285Z,41.80
2023-11-27T04:11:53.156Z,39.00
2023-11-27T04:14:19.877Z,37.80
2023-11-27T04:16:46.981Z,38.20
2023-11-27T04:19:13.841Z,36.00
2023-11-27T04:21:40.694Z,31.80
2023-11-27T04:24:08.620Z,36.00
2023-11-27T04:26:35.873Z,35.60
2023-11-27T04:29:03.087Z,37.60
2023-11-27T04:31:30.071Z,46.80
2023-11-27T04:33:57.389Z,44.20
2023-11-27T04:36:24.673Z,48.40
2023-11-27T04:38:51.878Z,41.40
2023-11-27T04:41:20.746Z,44.80
2023-11-27T04:43:47.817Z,40.00
2023-11-27T04:46:14.845Z,38.60
2023-11-27T04:48:41.956Z,40.00
2023-11-27T04:51:09.166Z,45.60
2023-11-27T04:53:35.964Z,38.60
2023-11-27T04:56:02.761Z,40.40
2023-11-27T04:58:29.966Z,37.40
2023-11-27T05:00:57.158Z,54.80
2023-11-27T05:03:24.293Z,48.80
2023-11-27T05:05:51.182Z,36.40
2023-11-27T05:08:18.023Z,47.80
2023-11-27T05:10:47.029Z,36.60
2023-11-27T05:13:14.971Z,37.40
2023-11-27T05:15:41.794Z,40.00
2023-11-27T05:18:08.897Z,39.00
2023-11-27T05:20:35.713Z,34.00
2023-11-27T05:23:03.399Z,33.00
2023-11-27T05:25:30.421Z,55.40
2023-11-27T05:27:57.384Z,34.40
2023-11-27T05:30:24.204Z,42.40
2023-11-27T05:32:51.818Z,34.00
2023-11-27T05:35:18.728Z,33.80
2023-11-27T05:37:45.530Z,31.00
2023-11-27T05:40:12.853Z,36.80
2023-11-27T05:42:42.307Z,42.40
2023-11-27T05:45:12.648Z,39.40
2023-11-27T05:47:42.559Z,37.00
2023-11-27T05:50:16.393Z,37.80
2023-11-27T05:52:43.722Z,42.60
2023-11-27T05:55:10.740Z,43.60
2023-11-27T05:57:38.341Z,37.40
2023-11-27T06:00:06.930Z,40.00
2023-11-27T06:02:33.853Z,39.40
2023-11-27T06:05:00.623Z,41.20
2023-11-27T06:07:27.526Z,42.40
2023-11-27T06:09:54.397Z,42.40
2023-11-27T06:12:24.927Z,50.60
2023-11-27T06:14:51.882Z,41.80
2023-11-27T06:17:18.957Z,36.20
2023-11-27T06:19:46.152Z,40.00
2023-11-27T06:22:13.420Z,33.60
2023-11-27T06:24:40.550Z,32.60
2023-11-27T06:27:07.265Z,39.20
2023-11-27T06:29:34.229Z,40.00
2023-11-27T06:32:01.116Z,37.40
2023-11-27T06:34:39.251Z,37.40
2023-11-27T06:37:06.645Z,32.60
2023-11-27T06:39:35.586Z,39.40
2023-11-27T06:42:03.889Z,38.80
2023-11-27T06:44:30.873Z,41.20
2023-11-27T06:46:59.841Z,37.60
2023-11-27T06:49:27.748Z,39.00
2023-11-27T06:51:54.950Z,39.20
2023-11-27T06:54:24.223Z,42.40
2023-11-27T06:56:53.215Z,44.60
2023-11-27T06:59:20.699Z,45.00
2023-11-27T07:01:48.091Z,38.60
2023-11-27T07:04:15.304Z,44.80
2023-11-27T07:06:43.064Z,39.20
2023-11-27T07:09:12.243Z,39.20
2023-11-27T07:11:39.022Z,37.80
2023-11-27T07:14:06.417Z,35.20
2023-11-27T07:16:35.537Z,36.40
2023-11-27T07:19:02.724Z,51.20
2023-11-27T07:21:30.677Z,37.20
2023-11-27T07:23:58.029Z,31.20
2023-11-27T07:26:26.260Z,36.80
2023-11-27T07:28:55.389Z,16.80
2023-11-27T07:31:23.125Z,36.60
2023-11-27T07:33:50.390Z,33.00
2023-11-27T07:36:18.174Z,41.60
2023-11-27T07:38:49.754Z,42.40
2023-11-27T07:41:19.277Z,34.80
2023-11-27T07:43:48.431Z,40.00
2023-11-27T07:46:16.152Z,43.40
2023-11-27T07:48:45.747Z,36.20
2023-11-27T07:51:13.714Z,39.60
2023-11-27T07:53:41.001Z,32.40
2023-11-27T07:56:08.409Z,39.20
2023-11-27T07:58:35.358Z,37.60
2023-11-27T08:01:02.191Z,35.80
2023-11-27T08:03:29.136Z,47.40
2023-11-27T08:05:56.060Z,34.40
2023-11-27T08:08:22.758Z,36.00
2023-11-27T08:10:49.491Z,37.60
2023-11-27T08:13:17.632Z,33.40
2023-11-27T08:15:45.558Z,30.60
2023-11-27T08:18:13.133Z,45.20
2023-11-27T08:20:40.157Z,33.60
2023-11-27T08:23:06.948Z,29.60
2023-11-27T08:25:34.395Z,36.40
2023-11-27T08:28:03.519Z,36.80
2023-11-27T08:30:34.019Z,33.80
2023-11-27T08:33:02.429Z,41.00
2023-11-27T08:35:29.459Z,31.40
2023-11-27T08:37:57.054Z,36.00
2023-11-27T08:40:24.268Z,39.00
2023-11-27T08:42:51.148Z,31.40
2023-11-27T08:45:19.443Z,30.80
2023-11-27T08:47:53.973Z,27.00
2023-11-27T08:50:25.719Z,36.00
2023-11-27T08:52:59.485Z,35.20
2023-11-27T08:55:31.921Z,34.80
2023-11-27T08:58:02.736Z,28.60
2023-11-27T09:00:30.396Z,33.20
2023-11-27T09:03:01.923Z,45.60
2023-11-27T09:05:32.897Z,32.20
2023-11-27T09:08:07.997Z,30.60
2023-11-27T09:10:36.763Z,43.40
2023-11-27T09:13:07.316Z,33.00
2023-11-27T09:15:38.181Z,35.20
2023-11-27T09:18:05.268Z,28.00
2023-11-27T09:20:32.200Z,33.80
2023-11-27T09:22:59.295Z,34.40
2023-11-27T09:25:26.129Z,36.40
2023-11-27T09:27:53.012Z,33.60
2023-11-27T09:30:22.065Z,33.60
2023-11-27T09:32:49.545Z,36.20
2023-11-27T09:35:16.900Z,35.80
2023-11-27T09:37:44.436Z,32.20
2023-11-27T09:40:14.105Z,32.20
2023-11-27T09:42:47.078Z,34.80
2023-11-27T09:45:18.420Z,35.40
2023-11-27T09:47:50.152Z,40.00
2023-11-27T09:50:20.989Z,30.00
2023-11-27T09:53:07.653Z,31.80
2023-11-27T09:55:42.338Z,32.60
2023-11-27T09:58:14.744Z,39.40
2023-11-27T10:00:43.906Z,32.60
2023-11-27T10:03:11.311Z,34.20
2023-11-27T10:05:39.009Z,33.00
2023-11-27T10:08:10.497Z,34.00
2023-11-27T10:10:39.037Z,31.20
2023-11-27T10:13:09.934Z,34.80
2023-11-27T10:15:50.124Z,41.40
2023-11-27T10:18:21.210Z,35.80
2023-11-27T10:20:51.063Z,35.60
2023-11-27T10:23:18.131Z,35.60
2023-11-27T10:25:46.474Z,33.60
2023-11-27T10:28:16.618Z,29.60
2023-11-27T10:30:46.546Z,42.00
2023-11-27T10:33:13.509Z,46.80
2023-11-27T10:35:43.479Z,32.60
2023-11-27T10:38:20.310Z,43.80
2023-11-27T10:40:47.693Z,34.00
2023-11-27T10:43:14.766Z,33.20
2023-11-27T10:45:41.844Z,43.40
2023-11-27T10:48:12.446Z,39.80
2023-11-27T10:50:43.095Z,38.00
2023-11-27T10:53:12.039Z,45.00
2023-11-27T10:55:40.278Z,34.80
2023-11-27T10:58:09.485Z,32.60
2023-11-27T11:00:48.542Z,38.00
2023-11-27T11:03:22.957Z,33.60
2023-11-27T11:05:55.193Z,33.60
2023-11-27T11:08:25.061Z,34.40
2023-11-27T11:10:54.872Z,30.40
2023-11-27T11:13:24.906Z,33.60
2023-11-27T11:16:22.072Z,102.80
2023-11-27T11:18:56.044Z,82.80
2023-11-27T11:22:08.498Z,76.80
2023-11-27T11:25:05.332Z,46.00
2023-11-27T11:27:49.791Z,43.00
2023-11-27T11:30:16.784Z,43.80
2023-11-27T11:32:44.361Z,37.80
2023-11-27T11:35:14.134Z,51.40
2023-11-27T11:37:51.343Z,39.00
2023-11-27T11:40:19.117Z,112.00
2023-11-27T11:42:46.473Z,62.80
2023-11-27T11:45:26.689Z,84.00
2023-11-27T11:48:20.142Z,131.50
2023-11-27T11:50:48.684Z,109.80
2023-11-27T11:53:38.399Z,76.60
2023-11-27T11:56:20.614Z,101.40
2023-11-27T11:58:51.433Z,101.40
2023-11-27T12:01:19.968Z,74.40
2023-11-27T12:03:48.163Z,105.00
2023-11-27T12:06:17.137Z,69.80
2023-11-27T12:08:46.835Z,37.00
2023-11-27T12:11:16.864Z,45.60
2023-11-27T12:13:45.827Z,53.40
2023-11-27T12:16:14.134Z,37.80
2023-11-27T12:18:52.762Z,38.80
2023-11-27T12:21:23.918Z,46.20
2023-11-27T12:23:55.934Z,31.40
2023-11-27T12:26:25.638Z,42.00
2023-11-27T12:28:55.430Z,31.80
2023-11-27T12:31:29.165Z,33.00
2023-11-27T12:33:56.082Z,37.80
2023-11-27T12:36:27.791Z,36.20
2023-11-27T12:38:57.608Z,37.60
2023-11-27T12:41:34.659Z,34.80
2023-11-27T12:44:09.638Z,36.80
2023-11-27T12:46:39.551Z,41.80
2023-11-27T12:49:08.302Z,37.20
2023-11-27T12:51:39.385Z,30.60
2023-11-27T12:54:05.904Z,33.00
2023-11-27T12:56:33.349Z,34.40
2023-11-27T12:59:01.874Z,34.00
2023-11-27T13:01:28.474Z,33.60
2023-11-27T13:03:57.659Z,33.60
2023-11-27T13:06:28.842Z,41.80
2023-11-27T13:08:55.633Z,31.80
2023-11-27T13:11:33.974Z,30.00
2023-11-27T13:14:08.793Z,33.40
2023-11-27T13:16:36.568Z,31.60
2023-11-27T13:19:07.737Z,35.20
2023-11-27T13:21:34.278Z,28.00
2023-11-27T13:24:00.957Z,31.00
2023-11-27T13:26:36.619Z,29.60
2023-11-27T13:29:07.908Z,30.80
2023-11-27T13:31:37.565Z,33.40
2023-11-27T13:34:31.088Z,28.00
2023-11-27T13:37:00.325Z,39.80
2023-11-27T13:39:37.774Z,41.20
2023-11-27T13:42:09.759Z,34.00
2023-11-27T13:44:45.928Z,45.00
2023-11-27T13:47:18.386Z,42.60
2023-11-27T13:49:49.632Z,42.40
2023-11-27T13:52:19.157Z,37.60
2023-11-27T13:54:46.545Z,39.00
2023-11-27T13:57:13.909Z,79.80
2023-11-27T13:59:43.624Z,70.60
2023-11-27T14:02:14.561Z,45.20
2023-11-27T14:05:17.727Z,49.40
2023-11-27T14:07:44.444Z,44.00
2023-11-27T14:10:33.008Z,34.40
2023-11-27T14:13:09.314Z,33.00
2023-11-27T14:16:03.067Z,31.80
2023-11-27T14:18:48.423Z,32.80
2023-11-27T14:21:33.519Z,29.60
2023-11-27T14:24:02.666Z,43.00
2023-11-27T14:26:50.125Z,36.40
2023-11-27T14:29:22.648Z,40.80
2023-11-27T14:34:34.262Z,43.00
2023-11-27T14:37:07.870Z,39.00
2023-11-27T14:39:34.486Z,31.00
2023-11-27T14:42:01.274Z,36.20
2023-11-27T14:44:30.078Z,31.40
2023-11-27T14:46:59.099Z,47.60
2023-11-27T14:49:26.865Z,40.00
2023-11-27T14:51:59.969Z,30.00
2023-11-27T14:54:30.130Z,35.00
2023-11-27T14:56:57.441Z,30.40
2023-11-27T14:59:26.715Z,27.00
2023-11-27T15:01:54.672Z,30.00
2023-11-27T15:04:22.000Z,44.80
2023-11-27T15:06:50.107Z,30.00
2023-11-27T15:09:22.528Z,30.00
2023-11-27T15:11:55.790Z,38.60
2023-11-27T15:14:24.914Z,31.40
2023-11-27T15:17:08.511Z,33.40
2023-11-27T15:25:11.027Z,28.80
2023-11-27T15:27:40.784Z,42.20
2023-11-27T15:30:10.153Z,31.80
2023-11-27T15:32:39.026Z,33.00
2023-11-27T15:35:11.422Z,42.40
2023-11-27T15:37:40.706Z,28.20
2023-11-27T15:40:10.102Z,24.80
2023-11-27T15:42:37.017Z,33.40
2023-11-27T15:45:11.975Z,43.00
2023-11-27T15:47:38.558Z,44.80
2023-11-27T15:50:05.934Z,45.40
2023-11-27T15:52:40.254Z,39.40
2023-11-27T15:55:10.047Z,41.00
2023-11-27T15:57:36.639Z,30.00
2023-11-27T16:00:04.655Z,30.00
2023-11-27T16:02:31.672Z,35.20
2023-11-27T16:04:58.768Z,40.00
2023-11-27T16:07:25.328Z,41.80
2023-11-27T16:09:54.164Z,34.00
2023-11-27T16:12:26.865Z,35.00
2023-11-27T16:14:53.582Z,31.80
2023-11-27T16:17:21.049Z,39.40
2023-11-27T16:19:47.658Z,33.20
2023-11-27T16:22:16.640Z,47.60
2023-11-27T16:24:43.716Z,30.60
2023-11-27T16:27:14.529Z,28.00
2023-11-27T16:29:41.028Z,37.40
2023-11-27T16:32:08.738Z,30.00
2023-11-27T16:34:37.993Z,29.20
2023-11-27T16:37:04.543Z,29.20
2023-11-27T16:39:31.041Z,32.20
2023-11-27T16:42:02.689Z,33.40
2023-11-27T16:44:30.258Z,41.00
2023-11-27T16:46:56.960Z,42.00
2023-11-27T16:49:23.995Z,34.80
2023-11-27T16:51:50.494Z,37.80
2023-11-27T16:54:17.694Z,30.20
2023-11-27T16:56:46.603Z,33.80
2023-11-27T16:59:16.190Z,32.00
2023-11-27T17:01:46.788Z,29.60
2023-11-27T17:04:13.564Z,35.00
2023-11-27T17:06:40.163Z,27.20
2023-11-27T17:09:08.769Z,43.60
2023-11-27T17:11:37.741Z,25.00
2023-11-27T17:14:05.288Z,27.00
2023-11-27T17:16:34.322Z,22.00
2023-11-27T17:19:05.616Z,38.40
2023-11-27T17:21:34.432Z,36.80
2023-11-27T17:24:00.918Z,28.20
2023-11-27T17:26:27.550Z,31.80
2023-11-27T17:28:56.623Z,31.40
2023-11-27T17:31:26.360Z,31.00
2023-11-27T17:33:55.927Z,33.40
2023-11-27T17:36:26.036Z,34.00
2023-11-27T17:38:52.519Z,34.80
2023-11-27T17:41:20.476Z,32.20
2023-11-27T17:43:48.680Z,30.00
2023-11-27T17:46:17.516Z,25.00
2023-11-27T17:48:45.204Z,32.20
2023-11-27T17:51:14.562Z,28.80
2023-11-27T17:53:43.605Z,40.40
2023-11-27T17:56:12.895Z,44.20
2023-11-27T17:58:40.098Z,37.20
2023-11-27T18:01:10.209Z,41.20
2023-11-27T18:03:39.160Z,47.80
2023-11-27T18:06:08.893Z,45.80
2023-11-27T18:08:37.379Z,42.20
2023-11-27T18:11:11.459Z,36.80
2023-11-27T18:13:40.968Z,20.60
2023-11-27T18:16:12.274Z,40.20
2023-11-27T18:18:41.513Z,30.20
2023-11-27T18:21:08.404Z,37.40
2023-11-27T18:23:34.881Z,38.20
2023-11-27T18:26:04.993Z,35.80
2023-11-27T18:28:34.336Z,44.60
2023-11-27T18:31:01.252Z,32.20
2023-11-27T18:33:27.839Z,34.40
2023-11-27T18:35:59.209Z,42.80
2023-11-27T18:38:27.297Z,40.40
2023-11-27T18:40:55.657Z,34.80
2023-11-27T18:43:23.412Z,36.60
2023-11-27T18:45:52.304Z,33.60
2023-11-27T18:48:18.858Z,31.40
2023-11-27T18:50:49.358Z,39.60
2023-11-27T18:53:15.950Z,36.60
2023-11-27T18:55:45.803Z,36.40
2023-11-27T18:58:15.290Z,36.60
2023-11-27T19:00:42.023Z,37.80
2023-11-27T19:03:08.919Z,35.20
2023-11-27T19:05:38.965Z,34.80
2023-11-27T19:08:05.954Z,31.20
2023-11-27T19:10:32.883Z,38.20
2023-11-27T19:13:02.961Z,36.40
2023-11-27T19:15:31.171Z,36.00
2023-11-27T19:17:57.659Z,33.60
2023-11-27T19:20:26.351Z,36.00
2023-11-27T19:22:55.207Z,42.80
2023-11-27T19:25:21.718Z,33.40
2023-11-27T19:27:53.430Z,33.60
2023-11-27T19:30:24.631Z,36.00
2023-11-27T19:32:51.105Z,48.40
2023-11-27T19:35:19.109Z,36.60
2023-11-27T19:37:49.368Z,36.40
2023-11-27T19:40:18.346Z,37.00
2023-11-27T19:42:44.961Z,34.60
2023-11-27T19:45:11.645Z,45.20
2023-11-27T19:47:40.787Z,38.20
2023-11-27T19:50:09.880Z,48.00
2023-11-27T19:52:38.913Z,37.40
2023-11-27T19:55:07.740Z,36.00
2023-11-27T19:57:37.151Z,31.00
2023-11-27T20:00:04.746Z,37.00
2023-11-27T20:02:36.668Z,39.20
2023-11-27T20:05:09.454Z,45.00
2023-11-27T20:07:37.079Z,37.20
2023-11-27T20:10:05.888Z,34.00
2023-11-27T20:12:32.382Z,31.00
2023-11-27T20:14:58.857Z,37.00
2023-11-27T20:17:30.205Z,33.00
2023-11-27T20:19:56.752Z,39.60
2023-11-27T20:22:24.840Z,35.60
2023-11-27T20:24:51.379Z,39.60
2023-11-27T20:27:19.252Z,36.60
2023-11-27T20:29:50.508Z,42.40
2023-11-27T20:32:19.825Z,34.80
2023-11-27T20:34:52.245Z,40.40
2023-11-27T20:37:19.462Z,36.80
2023-11-27T20:39:46.218Z,36.60
2023-11-27T20:42:14.730Z,35.60
2023-11-27T20:44:50.962Z,33.40
2023-11-27T20:47:22.315Z,38.60
2023-11-27T20:49:51.818Z,16.20
2023-11-27T20:52:20.243Z,36.20
2023-11-27T20:54:47.910Z,47.60
2023-11-27T20:57:14.602Z,35.80
2023-11-27T20:59:41.957Z,35.60
2023-11-27T21:02:08.560Z,33.40
2023-11-27T21:04:38.136Z,37.20
2023-11-27T21:07:04.847Z,38.20
2023-11-27T21:09:33.422Z,43.60
2023-11-27T21:12:02.256Z,40.20
2023-11-27T21:14:28.775Z,35.20
2023-11-27T21:16:55.383Z,36.00
2023-11-27T21:19:24.843Z,33.60
2023-11-27T21:21:53.757Z,39.40
2023-11-27T21:24:20.242Z,35.80
2023-11-27T21:26:49.003Z,36.40
2023-11-27T21:29:18.285Z,39.00
2023-11-27T21:31:44.877Z,37.20
2023-11-27T21:34:11.555Z,34.80
2023-11-27T21:36:38.122Z,36.60
2023-11-27T21:39:06.869Z,38.80
2023-11-27T21:41:33.883Z,39.60
2023-11-27T21:44:00.907Z,33.80
2023-11-27T21:46:27.683Z,32.60
2023-11-27T21:48:57.541Z,36.60
2023-11-27T21:51:24.952Z,33.60
2023-11-27T21:53:51.488Z,33.40
2023-11-27T21:56:17.967Z,33.00
2023-11-27T21:58:49.308Z,40.00
2023-11-27T22:01:17.739Z,35.80
2023-11-27T22:03:47.196Z,33.40
2023-11-27T22:06:16.172Z,34.00
2023-11-27T22:08:45.347Z,43.00
2023-11-27T22:11:14.074Z,42.80
2023-11-27T22:13:42.941Z,35.20
2023-11-27T22:16:10.030Z,36.40
2023-11-27T22:18:36.649Z,40.20
2023-11-27T22:21:05.645Z,36.00
2023-11-27T22:23:32.099Z,38.60
2023-11-27T22:25:58.598Z,34.00
2023-11-27T22:28:25.130Z,36.80
2023-11-27T22:30:51.664Z,33.00
2023-11-27T22:33:20.352Z,37.00
2023-11-27T22:35:47.913Z,34.40
2023-11-27T22:38:15.355Z,35.60
2023-11-27T22:40:41.828Z,40.00
2023-11-27T22:43:08.382Z,37.80
2023-11-27T22:45:34.869Z,39.40
2023-11-27T22:48:01.355Z,39.40
2023-11-27T22:50:27.941Z,36.60
2023-11-27T22:52:56.797Z,38.40
2023-11-27T22:55:25.563Z,36.00
2023-11-27T22:57:56.962Z,39.00
2023-11-27T23:00:24.046Z,37.00
2023-11-27T23:02:50.963Z,36.60
2023-11-27T23:05:17.817Z,40.00
2023-11-27T23:07:46.577Z,37.00
2023-11-27T23:10:13.621Z,34.80
2023-11-27T23:12:43.038Z,43.00
2023-11-27T23:15:12.228Z,36.00
2023-11-27T23:17:40.272Z,34.80
2023-11-27T23:20:07.991Z,35.80
2023-11-27T23:22:34.468Z,43.60
2023-11-27T23:25:03.610Z,39.00
2023-11-27T23:27:30.109Z,40.00
2023-11-27T23:29:56.575Z,47.20
2023-11-27T23:32:23.680Z,49.00
2023-11-27T23:34:50.206Z,42.00
2023-11-27T23:37:16.884Z,39.00
2023-11-27T23:39:43.386Z,35.60
2023-11-27T23:42:12.179Z,36.80
2023-11-27T23:44:40.191Z,39.40
2023-11-27T23:47:08.958Z,33.00
2023-11-27T23:49:38.815Z,31.00
2023-11-27T23:52:05.421Z,38.60
2023-11-27T23:54:31.970Z,36.80
2023-11-27T23:57:00.861Z,35.20
2023-11-27T23:59:27.539Z,36.40
